Time;durP1;ratioP1;P1;durP2;ratioP2;P2;SDS_P1;SDS_P2;PMS_P1;PMS_P2;Temp;Humidity;BMP_temperature;BMP_pressure;BME280_temperature;BME280_humidity;BME280_pressure;Samples;Min_cycle;Max_cycle;Signal;HPM_P1;HPM_P2
2023/05/19 04:01:15;;;;;;;2.57;1.50;;;14.50;66.00;;;;;;5834378;22;20553;-76
2023/05/19 04:03:42;;;;;;;2.97;1.50;;;14.50;65.60;;;;;;5034603;28;20489;-76
2023/05/19 04:06:09;;;;;;;2.53;2.10;;;14.60;65.70;;;;;;5034478;28;20558;-76
2023/05/19 04:08:36;;;;;;;3.10;2.07;;;14.50;65.40;;;;;;5034460;28;20482;-76
2023/05/19 04:11:02;;;;;;;2.67;1.33;;;14.50;65.70;;;;;;5034229;28;20491;-76
2023/05/19 04:16:00;;;;;;;2.20;1.60;;;14.50;65.90;;;;;;5032901;28;20471;-75
2023/05/19 04:18:28;;;;;;;3.40;1.77;;;14.50;65.90;;;;;;5034223;28;20447;-75
2023/05/19 04:20:55;;;;;;;4.57;2.20;;;14.40;66.20;;;;;;5034182;28;20485;-75
2023/05/19 04:23:21;;;;;;;2.23;1.37;;;14.30;66.30;;;;;;5034108;28;20447;-75
2023/05/19 04:25:48;;;;;;;2.67;1.70;;;14.20;66.50;;;;;;5034137;28;20474;-75
2023/05/19 04:28:15;;;;;;;2.17;1.27;;;14.30;66.50;;;;;;5034156;28;20991;-76
2023/05/19 04:30:45;;;;;;;3.63;2.13;;;14.30;66.30;;;;;;5033906;28;20475;-76
2023/05/19 04:33:12;;;;;;;3.53;1.67;;;14.30;66.60;;;;;;5033991;28;20455;-75
2023/05/19 04:35:41;;;;;;;2.30;1.20;;;14.30;67.40;;;;;;5033263;28;20503;-76
2023/05/19 04:38:08;;;;;;;3.00;1.90;;;14.30;66.90;;;;;;5033841;28;20448;-76
2023/05/19 04:40:35;;;;;;;2.20;1.30;;;14.20;66.60;;;;;;5033814;28;20450;-75
2023/05/19 04:43:02;;;;;;;2.63;1.80;;;14.20;66.80;;;;;;5033816;28;20447;-76
2023/05/19 04:45:31;;;;;;;4.10;1.80;;;14.20;67.00;;;;;;5033690;28;20470;-76
2023/05/19 04:47:58;;;;;;;2.50;1.43;;;14.10;67.20;;;;;;5033731;28;20460;-76
2023/05/19 04:50:25;;;;;;;1.80;1.10;;;14.20;67.40;;;;;;5033630;28;20462;-76
2023/05/19 04:52:53;;;;;;;3.40;1.60;;;14.30;67.20;;;;;;5033640;28;20447;-76
2023/05/19 04:55:20;;;;;;;2.97;1.93;;;14.30;67.00;;;;;;5033543;28;20463;-76
2023/05/19 04:57:46;;;;;;;3.30;2.00;;;14.30;67.40;;;;;;5033236;28;20940;-75
2023/05/19 05:00:14;;;;;;;3.07;1.57;;;14.30;67.20;;;;;;5033489;28;20447;-76
2023/05/19 05:02:41;;;;;;;3.17;1.90;;;14.30;67.00;;;;;;5033542;28;20470;-75
2023/05/19 05:05:09;;;;;;;2.93;1.40;;;14.30;67.20;;;;;;5033459;28;20471;-76
2023/05/19 05:07:35;;;;;;;2.87;1.77;;;14.30;66.90;;;;;;5033488;28;20502;-75
2023/05/19 05:10:04;;;;;;;4.63;1.90;;;14.30;66.80;;;;;;5033428;28;20447;-75
2023/05/19 05:12:57;;;;;;;3.87;1.70;;;14.30;67.40;;;;;;5033524;28;20506;-75
2023/05/19 05:15:27;;;;;;;3.43;1.67;;;14.30;67.60;;;;;;5032981;28;20498;-76
2023/05/19 05:17:54;;;;;;;2.53;1.50;;;14.30;67.20;;;;;;5033686;28;20808;-75
2023/05/19 05:20:21;;;;;;;4.00;1.70;;;14.40;67.30;;;;;;5033276;28;20447;-75
2023/05/19 05:22:49;;;;;;;5.13;2.13;;;14.50;67.30;;;;;;5033289;28;20447;-76
2023/05/19 05:25:18;;;;;;;2.80;1.60;;;14.40;67.20;;;;;;5033172;28;20517;-76
2023/05/19 05:27:45;;;;;;;2.60;1.47;;;14.40;67.20;;;;;;5032924;28;20800;-75
2023/05/19 05:30:12;;;;;;;2.27;1.30;;;14.50;67.30;;;;;;5033187;28;20455;-75
2023/05/19 05:32:39;;;;;;;2.30;1.50;;;14.60;67.00;;;;;;5033115;28;20490;-76
2023/05/19 05:35:06;;;;;;;2.47;1.60;;;14.60;66.80;;;;;;5033178;28;20478;-75
2023/05/19 05:37:33;;;;;;;3.63;1.60;;;14.70;66.30;;;;;;5033137;28;20482;-75
2023/05/19 05:40:00;;;;;;;3.03;1.97;;;14.80;66.30;;;;;;5033150;28;20455;-75
2023/05/19 05:42:28;;;;;;;2.93;1.50;;;14.80;66.60;;;;;;5033086;28;20443;-76
2023/05/19 05:44:54;;;;;;;3.53;2.00;;;14.70;66.30;;;;;;5032968;28;20468;-75
2023/05/19 05:47:21;;;;;;;2.30;1.50;;;14.80;66.50;;;;;;5035927;28;20451;-75
2023/05/19 05:49:49;;;;;;;2.50;1.60;;;14.90;66.70;;;;;;5037009;28;20447;-75
2023/05/19 05:52:18;;;;;;;3.00;1.50;;;15.10;66.10;;;;;;5036868;28;20475;-75
2023/05/19 05:54:45;;;;;;;3.40;1.53;;;15.40;66.20;;;;;;5037438;28;20479;-75
2023/05/19 05:57:12;;;;;;;2.83;1.70;;;15.60;64.80;;;;;;5036969;28;20530;-75
2023/05/19 05:59:40;;;;;;;2.70;1.67;;;15.70;65.40;;;;;;5036830;28;20447;-76
2023/05/19 06:02:07;;;;;;;2.60;1.80;;;15.80;66.60;;;;;;5036477;28;20530;-76
2023/05/19 06:04:34;;;;;;;4.83;2.10;;;16.00;65.90;;;;;;5036674;28;20476;-76
2023/05/19 06:07:00;;;;;;;3.10;1.80;;;16.20;64.00;;;;;;5036650;28;20796;-76
2023/05/19 06:09:28;;;;;;;4.07;1.80;;;16.40;64.60;;;;;;5036439;28;20443;-76
2023/05/19 06:11:55;;;;;;;2.20;1.60;;;16.60;62.80;;;;;;5036272;28;20762;-76
2023/05/19 06:14:21;;;;;;;2.63;1.50;;;16.90;63.10;;;;;;5036299;28;20856;-76
2023/05/19 06:16:49;;;;;;;2.87;1.50;;;16.80;62.60;;;;;;5036196;28;21002;-76
2023/05/19 06:19:16;;;;;;;3.40;2.00;;;16.90;62.80;;;;;;5036445;28;20458;-76
2023/05/19 06:21:43;;;;;;;2.67;1.60;;;17.00;62.10;;;;;;5036475;28;20450;-76
2023/05/19 06:24:10;;;;;;;3.17;1.57;;;17.20;62.00;;;;;;5036331;28;20498;-76
2023/05/19 06:26:36;;;;;;;3.60;1.70;;;17.00;61.90;;;;;;5035992;28;20825;-75
2023/05/19 06:29:03;;;;;;;3.10;2.10;;;17.10;62.40;;;;;;5036820;28;20450;-75
2023/05/19 06:31:32;;;;;;;2.83;1.80;;;17.30;62.20;;;;;;5036164;28;20487;-76
2023/05/19 06:34:00;;;;;;;2.17;1.43;;;17.30;61.00;;;;;;5036085;28;20479;-75
2023/05/19 06:36:26;;;;;;;2.47;1.57;;;17.30;61.50;;;;;;5035718;28;20448;-75
2023/05/19 06:38:53;;;;;;;2.80;1.60;;;17.40;61.90;;;;;;5036085;28;20473;-74
2023/05/19 06:41:20;;;;;;;3.43;1.90;;;17.40;61.40;;;;;;5035976;28;20443;-75
2023/05/19 06:43:47;;;;;;;2.80;2.10;;;17.40;61.90;;;;;;5035923;28;20451;-76
2023/05/19 06:46:16;;;;;;;2.40;1.80;;;17.00;62.60;;;;;;5036187;28;20855;-76
2023/05/19 06:48:43;;;;;;;3.17;1.67;;;16.80;63.40;;;;;;5036010;28;20448;-77
2023/05/19 06:51:11;;;;;;;3.50;2.07;;;16.90;63.40;;;;;;5035837;28;20447;-76
2023/05/19 06:53:37;;;;;;;2.90;2.20;;;16.80;63.20;;;;;;5035723;28;20447;-76
2023/05/19 06:56:05;;;;;;;3.10;1.90;;;16.60;63.90;;;;;;5035556;28;20459;-76
2023/05/19 06:58:32;;;;;;;3.23;2.07;;;16.50;64.20;;;;;;5034997;28;20452;-75
2023/05/19 07:00:58;;;;;;;3.37;1.67;;;16.90;64.80;;;;;;5035637;28;20455;-75
2023/05/19 07:03:26;;;;;;;3.70;1.90;;;17.20;63.50;;;;;;5035573;28;20451;-73
2023/05/19 07:05:52;;;;;;;2.83;1.70;;;17.50;62.60;;;;;;5035266;28;21002;-73
2023/05/19 07:08:20;;;;;;;4.47;2.20;;;17.10;62.50;;;;;;5035471;28;20447;-74
2023/05/19 07:10:47;;;;;;;3.47;1.93;;;16.80;63.30;;;;;;5035176;28;20887;-73
2023/05/19 07:13:13;;;;;;;2.77;1.87;;;16.60;63.40;;;;;;5035388;28;20486;-76
2023/05/19 07:15:40;;;;;;;2.60;2.00;;;16.80;63.50;;;;;;5034942;28;20486;-76
2023/05/19 07:18:07;;;;;;;3.67;2.50;;;16.70;63.70;;;;;;5035332;28;20535;-76
2023/05/19 07:20:33;;;;;;;2.77;1.87;;;16.50;64.60;;;;;;5035819;28;20451;-76
2023/05/19 07:23:01;;;;;;;4.00;2.37;;;16.10;65.00;;;;;;5035194;28;20479;-76
2023/05/19 07:25:29;;;;;;;2.67;1.60;;;15.90;66.00;;;;;;5035783;28;20518;-74
2023/05/19 07:27:56;;;;;;;3.47;1.93;;;15.80;66.10;;;;;;5035595;28;20538;-73
2023/05/19 07:30:23;;;;;;;3.83;2.10;;;15.70;65.80;;;;;;5035296;28;20479;-74
2023/05/19 07:32:50;;;;;;;3.63;1.90;;;15.70;66.50;;;;;;5035376;28;20483;-74
2023/05/19 07:35:16;;;;;;;3.50;2.10;;;15.80;66.10;;;;;;5035005;28;20512;-74
2023/05/19 07:37:43;;;;;;;3.73;1.80;;;15.80;66.20;;;;;;5035522;28;20527;-74
2023/05/19 07:40:10;;;;;;;3.83;1.50;;;15.70;66.10;;;;;;5035212;28;20452;-74
2023/05/19 07:42:38;;;;;;;3.10;1.87;;;15.60;66.10;;;;;;5035111;28;20447;-74
2023/05/19 07:45:05;;;;;;;2.87;1.80;;;15.40;65.90;;;;;;5034638;28;20815;-74
2023/05/19 07:47:32;;;;;;;3.10;1.53;;;15.50;67.00;;;;;;5035232;28;20443;-74
2023/05/19 07:49:59;;;;;;;2.40;1.90;;;15.80;66.80;;;;;;5034945;28;20447;-74
2023/05/19 07:52:26;;;;;;;2.63;1.87;;;15.90;66.50;;;;;;5035304;28;20546;-75
2023/05/19 07:54:52;;;;;;;2.90;1.97;;;15.80;66.70;;;;;;5035055;28;20471;-74
2023/05/19 07:57:19;;;;;;;2.77;1.83;;;15.50;66.10;;;;;;5035694;28;20538;-74
2023/05/19 07:59:47;;;;;;;3.67;1.97;;;15.60;66.60;;;;;;5035022;28;20459;-74
2023/05/19 08:02:14;;;;;;;4.77;2.30;;;15.70;65.30;;;;;;5034957;28;20447;-74
2023/05/19 08:04:41;;;;;;;2.97;1.53;;;15.60;65.90;;;;;;5034835;28;20467;-74
2023/05/19 08:07:08;;;;;;;3.03;1.87;;;15.50;66.50;;;;;;5034819;28;20546;-74
2023/05/19 08:09:34;;;;;;;2.50;1.57;;;15.60;66.00;;;;;;5033762;28;20447;-74
2023/05/19 08:12:03;;;;;;;2.63;1.80;;;15.60;66.30;;;;;;5034252;28;21008;-74
2023/05/19 08:14:32;;;;;;;2.83;1.80;;;15.50;66.40;;;;;;5034087;28;20860;-74
2023/05/19 08:17:00;;;;;;;2.73;1.60;;;15.50;66.60;;;;;;5035754;28;20555;-74
2023/05/19 08:19:26;;;;;;;3.23;2.00;;;15.50;66.80;;;;;;5035259;28;20502;-74
2023/05/19 08:21:53;;;;;;;5.30;2.23;;;15.50;66.60;;;;;;5034577;28;20963;-73
2023/05/19 08:24:20;;;;;;;2.50;1.80;;;15.20;67.00;;;;;;5034381;28;21006;-75
2023/05/19 08:26:46;;;;;;;2.70;1.60;;;15.00;67.50;;;;;;5034209;28;20455;-75
2023/05/19 08:29:13;;;;;;;3.10;1.63;;;15.00;67.60;;;;;;5034361;28;21063;-74
2023/05/19 08:31:40;;;;;;;2.70;1.73;;;15.10;67.20;;;;;;5034481;28;20457;-74
2023/05/19 08:34:08;;;;;;;2.40;1.90;;;15.00;67.00;;;;;;5033545;28;20890;-72
2023/05/19 08:36:34;;;;;;;4.43;2.17;;;15.00;67.60;;;;;;5034148;28;20452;-73
2023/05/19 08:39:01;;;;;;;3.27;2.20;;;15.20;67.40;;;;;;5034199;28;20474;-72
2023/05/19 08:41:28;;;;;;;2.40;1.73;;;15.20;67.30;;;;;;5033969;28;20482;-72
2023/05/19 08:43:55;;;;;;;3.73;2.10;;;15.10;67.70;;;;;;5034002;28;20464;-72
2023/05/19 08:46:24;;;;;;;3.17;2.03;;;15.10;67.60;;;;;;5034055;28;20443;-73
2023/05/19 08:48:58;;;;;;;2.80;1.77;;;15.10;67.70;;;;;;5033905;28;20443;-72
2023/05/19 08:51:33;;;;;;;4.57;2.30;;;15.20;67.80;;;;;;5033932;28;20443;-73
2023/05/19 08:54:08;;;;;;;2.77;1.70;;;15.50;66.80;;;;;;5034035;28;20470;-73
2023/05/19 08:56:36;;;;;;;4.27;1.73;;;15.60;66.50;;;;;;5033759;28;20439;-72
2023/05/19 09:02:16;;;;;;;3.03;1.83;;;15.50;66.90;;;;;;5033579;28;20453;-72
2023/05/19 09:04:44;;;;;;;3.03;1.87;;;15.70;65.90;;;;;;5033562;28;20471;-73
2023/05/19 09:07:13;;;;;;;3.37;1.93;;;15.80;66.20;;;;;;5033511;28;20453;-73
2023/05/19 09:09:42;;;;;;;3.30;2.07;;;15.70;66.50;;;;;;5033284;28;20855;-73
2023/05/19 09:12:09;;;;;;;5.13;2.37;;;15.50;66.60;;;;;;5033481;28;20538;-72
2023/05/19 09:14:36;;;;;;;3.80;2.03;;;15.40;66.70;;;;;;5033231;28;20490;-73
2023/05/19 09:17:03;;;;;;;5.30;2.60;;;15.40;67.00;;;;;;5033376;28;20448;-72
2023/05/19 09:19:30;;;;;;;3.10;2.10;;;15.70;66.60;;;;;;5034517;28;20451;-72
2023/05/19 09:22:02;;;;;;;4.90;2.00;;;15.90;66.70;;;;;;5032888;28;20459;-72
2023/05/19 09:24:30;;;;;;;3.53;1.67;;;16.00;65.70;;;;;;5033433;28;20529;-73
2023/05/19 09:26:57;;;;;;;3.40;1.90;;;16.00;65.20;;;;;;5032947;28;20937;-72
2023/05/19 09:29:24;;;;;;;2.23;1.57;;;15.90;64.80;;;;;;5033142;28;20451;-73
2023/05/19 09:31:52;;;;;;;2.40;1.70;;;15.80;65.20;;;;;;5033096;28;20883;-73
2023/05/19 09:34:19;;;;;;;3.00;1.73;;;15.50;66.10;;;;;;5033062;28;20537;-72
2023/05/19 09:36:48;;;;;;;2.87;2.03;;;15.40;66.40;;;;;;5033083;28;20448;-73
2023/05/19 09:39:15;;;;;;;4.40;2.00;;;15.40;66.40;;;;;;5033630;28;20479;-73
2023/05/19 09:41:44;;;;;;;3.57;1.60;;;15.50;66.90;;;;;;5032910;28;20448;-72
2023/05/19 09:44:21;;;;;;;3.17;1.97;;;15.40;67.00;;;;;;5033350;28;20550;-73
2023/05/19 09:46:48;;;;;;;4.57;2.13;;;15.50;66.50;;;;;;5032708;28;20926;-72
2023/05/19 09:49:20;;;;;;;3.23;2.37;;;15.50;67.00;;;;;;5033029;28;20534;-74
2023/05/19 09:51:49;;;;;;;3.10;2.27;;;15.40;66.70;;;;;;5033009;28;20514;-72
2023/05/19 09:54:16;;;;;;;3.90;1.77;;;15.30;67.10;;;;;;5032812;28;20463;-72
2023/05/19 09:56:44;;;;;;;2.30;1.70;;;15.50;67.50;;;;;;5032950;28;20517;-72
2023/05/19 09:59:14;;;;;;;3.37;1.60;;;15.50;66.90;;;;;;5032582;28;20799;-73
2023/05/19 10:01:45;;;;;;;4.60;2.13;;;15.50;66.40;;;;;;5032830;28;20517;-72
2023/05/19 10:04:13;;;;;;;4.83;1.87;;;15.60;67.20;;;;;;5032847;28;20467;-73
2023/05/19 10:06:40;;;;;;;3.80;1.80;;;15.80;66.70;;;;;;5032741;28;20439;-72
2023/05/19 10:09:07;;;;;;;4.13;2.40;;;15.90;66.30;;;;;;5032762;28;20451;-73
2023/05/19 10:11:34;;;;;;;3.50;1.90;;;16.20;66.40;;;;;;5032751;28;20447;-72
2023/05/19 10:14:11;;;;;;;4.10;1.97;;;16.10;64.60;;;;;;5073011;23;20498;-69
2023/05/19 10:16:38;;;;;;;3.23;1.90;;;16.00;65.30;;;;;;5011770;28;20460;-72
2023/05/19 10:19:07;;;;;;;2.00;1.30;;;15.90;65.50;;;;;;5013082;28;20452;-72
2023/05/19 10:21:33;;;;;;;3.43;2.10;;;15.80;66.40;;;;;;5013116;28;20452;-72
2023/05/19 10:24:00;;;;;;;3.10;1.63;;;15.80;65.30;;;;;;5013298;28;20603;-73
2023/05/19 10:26:28;;;;;;;3.90;1.77;;;15.90;65.50;;;;;;5013292;28;20475;-72
2023/05/19 10:28:55;;;;;;;3.03;2.10;;;15.80;65.30;;;;;;5013104;28;20453;-73
2023/05/19 10:31:25;;;;;;;3.50;2.60;;;15.60;65.10;;;;;;5012886;28;20445;-72
2023/05/19 10:34:20;;;;;;;4.50;2.97;;;15.50;66.30;;;;;;5014414;28;20909;-72
2023/05/19 10:36:50;;;;;;;4.53;1.70;;;15.60;66.00;;;;;;5016119;28;20459;-73
2023/05/19 10:39:21;;;;;;;3.10;1.80;;;15.60;65.90;;;;;;5016312;28;20448;-73
2023/05/19 10:41:59;;;;;;;2.77;1.50;;;15.70;65.80;;;;;;5016406;28;20487;-73
2023/05/19 10:44:39;;;;;;;2.50;1.80;;;15.80;66.00;;;;;;5015993;28;20460;-73
2023/05/19 10:47:10;;;;;;;3.17;1.70;;;15.80;65.00;;;;;;5016334;28;20433;-73
2023/05/19 10:49:38;;;;;;;2.50;1.47;;;15.80;65.80;;;;;;5016309;28;20443;-73
2023/05/19 10:52:20;;;;;;;3.03;2.00;;;15.70;65.40;;;;;;5016319;28;20503;-73
2023/05/19 10:54:46;;;;;;;3.40;2.20;;;15.70;65.60;;;;;;5016167;28;20556;-73
2023/05/19 10:57:15;;;;;;;2.43;1.80;;;15.70;66.10;;;;;;5015861;28;20954;-73
2023/05/19 10:59:43;;;;;;;2.30;1.40;;;15.80;66.20;;;;;;5016174;28;20475;-73
2023/05/19 11:02:36;;;;;;;3.57;1.70;;;15.90;65.40;;;;;;5016200;28;20448;-73
2023/05/19 11:05:08;;;;;;;2.90;2.00;;;15.90;65.00;;;;;;5015922;28;20464;-72
2023/05/19 11:07:35;;;;;;;2.40;1.60;;;16.00;65.20;;;;;;5015986;28;20624;-73
2023/05/19 11:10:06;;;;;;;2.67;1.87;;;16.00;64.80;;;;;;5015946;28;20456;-73
2023/05/19 11:12:41;;;;;;;5.53;1.87;;;15.90;64.80;;;;;;5015792;28;20425;-72
2023/05/19 11:15:11;;;;;;;2.33;1.40;;;16.00;64.70;;;;;;5015293;28;20887;-73
2023/05/19 11:17:41;;;;;;;2.57;1.40;;;16.00;65.30;;;;;;5015689;28;20449;-73
2023/05/19 11:20:09;;;;;;;2.30;1.53;;;16.10;64.40;;;;;;5015790;28;20502;-73
2023/05/19 11:22:37;;;;;;;2.90;1.70;;;15.90;64.80;;;;;;5015548;28;20543;-73
2023/05/19 11:25:06;;;;;;;3.93;1.97;;;15.90;65.10;;;;;;5015171;28;20996;-73
2023/05/19 11:27:36;;;;;;;3.70;1.60;;;15.90;65.20;;;;;;5016305;28;20460;-73
2023/05/19 11:30:13;;;;;;;2.70;1.53;;;15.80;65.50;;;;;;5015944;28;20460;-73
2023/05/19 11:32:42;;;;;;;3.93;1.60;;;16.10;65.10;;;;;;5015715;28;20484;-73
2023/05/19 11:35:10;;;;;;;3.67;1.80;;;15.90;65.30;;;;;;5015531;28;20507;-72
2023/05/19 11:37:39;;;;;;;2.30;1.37;;;15.80;66.10;;;;;;5015546;28;20448;-73
2023/05/19 11:40:07;;;;;;;3.17;1.80;;;15.90;65.30;;;;;;5015488;28;20502;-72
2023/05/19 11:42:35;;;;;;;2.00;1.60;;;16.10;65.80;;;;;;5015132;28;20452;-73
2023/05/19 11:45:03;;;;;;;3.70;1.60;;;16.20;64.20;;;;;;5014431;28;20993;-73
2023/05/19 11:47:31;;;;;;;3.00;1.50;;;16.20;64.40;;;;;;5014937;28;20453;-73
2023/05/19 11:50:00;;;;;;;2.63;1.60;;;16.30;64.80;;;;;;5015034;28;20476;-73
2023/05/19 11:52:27;;;;;;;4.60;1.50;;;16.10;64.80;;;;;;5014736;28;20512;-73
2023/05/19 11:54:53;;;;;;;3.20;1.73;;;16.00;65.30;;;;;;5014786;28;20475;-73
2023/05/19 11:57:21;;;;;;;2.63;1.67;;;16.20;64.70;;;;;;5014832;28;20503;-73
2023/05/19 11:59:48;;;;;;;3.53;2.00;;;16.10;65.60;;;;;;5014856;28;20819;-73
2023/05/19 12:02:19;;;;;;;3.60;1.47;;;16.00;65.80;;;;;;5014759;28;20794;-72
2023/05/19 12:04:46;;;;;;;2.10;1.60;;;16.10;65.60;;;;;;5015198;28;20460;-74
2023/05/19 12:07:17;;;;;;;2.60;1.50;;;16.00;64.00;;;;;;5014633;28;20522;-73
2023/05/19 12:09:45;;;;;;;2.60;1.60;;;15.90;65.30;;;;;;5020146;28;20444;-73
2023/05/19 12:12:14;;;;;;;2.43;1.70;;;15.80;65.30;;;;;;5026853;28;20444;-71
2023/05/19 12:14:41;;;;;;;2.40;1.63;;;15.90;66.00;;;;;;5025474;28;20496;-73
2023/05/19 12:17:13;;;;;;;2.40;1.67;;;16.00;65.40;;;;;;5025526;28;20500;-73
2023/05/19 12:19:40;;;;;;;3.37;1.80;;;16.10;65.20;;;;;;5025261;28;20447;-73
2023/05/19 12:22:08;;;;;;;2.90;1.63;;;16.00;65.60;;;;;;5026512;28;20448;-74
2023/05/19 12:24:37;;;;;;;2.13;1.40;;;16.10;65.90;;;;;;5025437;28;20487;-73
2023/05/19 12:27:11;;;;;;;3.17;1.70;;;16.30;65.50;;;;;;5027538;28;20453;-72
2023/05/19 12:29:39;;;;;;;2.70;2.00;;;16.50;66.40;;;;;;5025658;28;20435;-73
2023/05/19 12:32:07;;;;;;;3.27;2.10;;;16.60;64.70;;;;;;5025958;28;20445;-73
2023/05/19 12:34:36;;;;;;;2.63;1.70;;;16.50;64.40;;;;;;5025147;28;20988;-74
2023/05/19 12:37:03;;;;;;;3.37;1.50;;;16.50;64.90;;;;;;5025362;28;20459;-74
2023/05/19 12:39:30;;;;;;;4.77;1.90;;;16.30;64.40;;;;;;5024690;28;20937;-74
2023/05/19 12:42:03;;;;;;;2.70;1.83;;;16.10;65.50;;;;;;5025467;28;20449;-73
2023/05/19 12:44:30;;;;;;;3.67;2.30;;;15.90;65.80;;;;;;5026034;28;20468;-73
2023/05/19 12:46:58;;;;;;;3.07;2.00;;;15.90;65.70;;;;;;5025242;28;20452;-73
2023/05/19 12:49:24;;;;;;;2.40;1.80;;;16.00;66.00;;;;;;5025044;28;20440;-73
2023/05/19 12:51:52;;;;;;;2.70;1.70;;;16.00;65.70;;;;;;5025962;28;20532;-72
2023/05/19 12:54:20;;;;;;;3.53;1.90;;;16.10;65.90;;;;;;5025461;28;20495;-73
2023/05/19 12:56:50;;;;;;;3.60;1.80;;;16.10;66.00;;;;;;5025032;28;20531;-73
2023/05/19 12:59:24;;;;;;;2.70;2.30;;;16.30;65.20;;;;;;5025660;28;20433;-72
2023/05/19 13:01:57;;;;;;;2.97;1.80;;;16.30;64.80;;;;;;5024743;28;20436;-73
2023/05/19 13:04:24;;;;;;;3.83;2.40;;;16.50;64.50;;;;;;5025000;28;20456;-72
2023/05/19 13:06:52;;;;;;;5.77;3.03;;;16.40;64.70;;;;;;5026205;28;20440;-72
2023/05/19 13:09:18;;;;;;;3.10;1.83;;;16.50;64.60;;;;;;5025951;28;20486;-74
2023/05/19 13:11:50;;;;;;;4.40;2.90;;;16.50;64.30;;;;;;5023502;28;20531;-75
2023/05/19 13:14:18;;;;;;;3.90;2.50;;;16.50;64.40;;;;;;5013932;28;20492;-74
2023/05/19 13:16:46;;;;;;;3.20;2.43;;;16.50;64.50;;;;;;5013621;28;20519;-74
2023/05/19 13:19:14;;;;;;;3.37;1.80;;;16.50;64.10;;;;;;5013658;28;20632;-74
2023/05/19 13:21:41;;;;;;;2.40;1.50;;;16.70;64.30;;;;;;5013214;28;20459;-76
2023/05/19 13:24:08;;;;;;;2.60;1.97;;;16.70;64.90;;;;;;5013412;28;20448;-76
2023/05/19 13:26:35;;;;;;;3.60;1.70;;;16.80;64.60;;;;;;5013437;28;20451;-76
2023/05/19 13:29:02;;;;;;;4.40;2.27;;;16.70;63.70;;;;;;5013245;28;20816;-76
2023/05/19 13:31:29;;;;;;;3.30;2.10;;;16.70;63.80;;;;;;5013410;28;20484;-76
2023/05/19 13:33:57;;;;;;;3.93;1.83;;;16.70;64.00;;;;;;5013363;28;20484;-76
2023/05/19 13:36:25;;;;;;;3.80;2.30;;;16.60;63.40;;;;;;5013374;28;20448;-76
2023/05/19 13:38:51;;;;;;;2.40;1.80;;;16.40;64.20;;;;;;5013396;28;20448;-75
2023/05/19 13:41:23;;;;;;;2.83;2.00;;;16.60;63.90;;;;;;5013321;28;20445;-76
2023/05/19 13:43:49;;;;;;;3.30;2.50;;;16.50;63.60;;;;;;5013369;28;20475;-76
2023/05/19 13:46:16;;;;;;;3.50;2.47;;;16.70;64.70;;;;;;5013204;28;20526;-76
2023/05/19 13:48:43;;;;;;;4.20;2.67;;;16.70;64.10;;;;;;5013243;28;20463;-76
2023/05/19 13:51:11;;;;;;;3.33;1.80;;;16.70;63.30;;;;;;5013369;28;20453;-75
2023/05/19 13:53:38;;;;;;;3.37;1.80;;;16.60;64.70;;;;;;5012860;28;21049;-75
2023/05/19 13:56:05;;;;;;;2.83;2.30;;;16.50;64.20;;;;;;5013135;28;20551;-75
2023/05/19 13:58:32;;;;;;;3.73;2.37;;;16.60;63.70;;;;;;5013158;28;20451;-75
2023/05/19 14:00:59;;;;;;;4.07;2.57;;;16.80;64.60;;;;;;5012798;28;20950;-75
2023/05/19 14:03:26;;;;;;;3.03;2.00;;;16.90;64.10;;;;;;5013089;28;20448;-75
2023/05/19 14:05:52;;;;;;;2.87;1.87;;;16.90;63.60;;;;;;5012865;28;20472;-75
2023/05/19 14:08:20;;;;;;;3.60;1.70;;;16.80;64.10;;;;;;5015684;28;20448;-76
2023/05/19 14:10:47;;;;;;;2.93;2.23;;;16.80;63.80;;;;;;5016883;28;20463;-75
2023/05/19 14:13:14;;;;;;;5.50;2.90;;;16.80;63.80;;;;;;5016465;28;20809;-75
2023/05/19 14:15:41;;;;;;;3.00;2.10;;;16.90;63.30;;;;;;5016359;28;20480;-75
2023/05/19 14:18:07;;;;;;;3.10;2.20;;;17.10;63.50;;;;;;5016756;28;20494;-76
2023/05/19 14:20:34;;;;;;;3.27;1.70;;;16.90;63.70;;;;;;5016703;28;20456;-74
2023/05/19 14:23:01;;;;;;;3.57;1.87;;;16.90;63.90;;;;;;5016673;28;20479;-73
2023/05/19 14:25:29;;;;;;;3.60;2.07;;;17.00;63.70;;;;;;5017182;28;20522;-74
2023/05/19 14:27:58;;;;;;;2.50;2.20;;;16.90;63.70;;;;;;5017089;28;20930;-75
2023/05/19 14:30:25;;;;;;;3.17;2.10;;;16.80;64.60;;;;;;5016916;28;20465;-77
2023/05/19 14:32:51;;;;;;;4.60;2.47;;;16.90;64.80;;;;;;5016777;28;21057;-74
2023/05/19 14:35:18;;;;;;;4.43;2.10;;;17.20;63.90;;;;;;5016981;28;20901;-75
2023/05/19 14:37:45;;;;;;;3.40;2.20;;;17.00;63.40;;;;;;5016894;28;20451;-74
2023/05/19 14:40:12;;;;;;;2.53;1.77;;;17.10;63.90;;;;;;5016814;28;20510;-74
2023/05/19 14:42:40;;;;;;;3.87;2.33;;;17.10;64.20;;;;;;5017461;28;20455;-75
2023/05/19 14:45:08;;;;;;;2.80;1.80;;;17.10;64.20;;;;;;5016424;28;20464;-76
2023/05/19 14:47:35;;;;;;;2.80;2.10;;;17.00;63.60;;;;;;5016542;28;20451;-75
2023/05/19 14:50:01;;;;;;;3.43;2.50;;;17.10;63.80;;;;;;5016135;28;20484;-75
2023/05/19 14:52:28;;;;;;;3.53;1.70;;;16.90;63.80;;;;;;5015941;28;20456;-75
2023/05/19 14:54:55;;;;;;;4.30;1.83;;;17.00;63.40;;;;;;5016031;28;20566;-75
2023/05/19 14:57:22;;;;;;;3.03;1.90;;;16.80;64.60;;;;;;5015775;28;20925;-75
2023/05/19 14:59:50;;;;;;;2.43;1.70;;;16.90;64.80;;;;;;5016080;28;20448;-76
2023/05/19 15:02:17;;;;;;;4.67;2.40;;;16.80;64.10;;;;;;5016093;28;20453;-75
2023/05/19 15:04:43;;;;;;;3.60;2.30;;;16.70;64.50;;;;;;5015770;28;20468;-75
2023/05/19 15:07:10;;;;;;;3.10;2.00;;;16.60;65.10;;;;;;5015822;28;20449;-75
2023/05/19 15:09:37;;;;;;;3.13;1.90;;;16.60;64.60;;;;;;5015849;28;20456;-76
2023/05/19 15:12:04;;;;;;;3.67;2.27;;;16.50;64.40;;;;;;5015459;28;20510;-75
2023/05/19 15:14:31;;;;;;;3.20;2.13;;;16.50;65.20;;;;;;5015424;28;20575;-75
2023/05/19 15:16:59;;;;;;;4.00;2.00;;;16.60;65.10;;;;;;5015781;28;20433;-75
2023/05/19 15:19:25;;;;;;;2.60;2.00;;;16.40;65.50;;;;;;5015106;28;20455;-75
2023/05/19 15:21:52;;;;;;;2.50;2.00;;;16.60;65.30;;;;;;5015660;28;20444;-75
2023/05/19 15:24:19;;;;;;;3.67;2.47;;;16.40;64.80;;;;;;5015126;28;20469;-75
2023/05/19 15:26:46;;;;;;;3.50;2.20;;;16.40;64.90;;;;;;5015508;28;20449;-75
2023/05/19 15:29:13;;;;;;;4.53;2.73;;;16.30;65.00;;;;;;5015503;28;20510;-75
2023/05/19 15:31:39;;;;;;;3.00;1.90;;;16.10;65.50;;;;;;5015673;28;20828;-75
2023/05/19 15:34:07;;;;;;;2.90;1.97;;;16.00;66.40;;;;;;5015159;28;20488;-75
2023/05/19 15:36:34;;;;;;;5.30;2.10;;;16.20;65.80;;;;;;5015118;28;20455;-75
2023/05/19 15:39:02;;;;;;;2.60;1.93;;;16.20;65.20;;;;;;5015162;28;20444;-75
2023/05/19 15:41:29;;;;;;;3.23;2.03;;;16.10;65.90;;;;;;5015128;28;20453;-75
2023/05/19 15:43:55;;;;;;;2.80;2.00;;;16.10;65.90;;;;;;5015068;28;20440;-74
2023/05/19 15:46:22;;;;;;;3.80;2.20;;;16.10;65.80;;;;;;5014689;28;20953;-75
2023/05/19 15:48:49;;;;;;;4.33;1.87;;;16.40;65.20;;;;;;5015108;28;20863;-75
2023/05/19 15:51:17;;;;;;;2.70;1.90;;;16.20;65.60;;;;;;5014961;28;20883;-74
2023/05/19 15:53:43;;;;;;;3.33;2.27;;;16.40;66.10;;;;;;5015046;28;20448;-75
2023/05/19 15:56:10;;;;;;;2.33;1.73;;;16.40;65.20;;;;;;5014842;28;20468;-75
2023/05/19 15:58:37;;;;;;;3.50;1.87;;;16.40;65.70;;;;;;5014865;28;20551;-75
2023/05/19 16:01:04;;;;;;;5.17;2.00;;;16.50;65.50;;;;;;5014749;28;20460;-75
2023/05/19 16:03:31;;;;;;;2.87;2.10;;;16.50;64.80;;;;;;5014745;28;20456;-75
2023/05/19 16:05:59;;;;;;;3.67;3.30;;;16.60;65.20;;;;;;5014277;28;20464;-75
2023/05/19 16:08:27;;;;;;;2.70;1.83;;;16.50;65.30;;;;;;5014533;28;20452;-75
2023/05/19 16:10:54;;;;;;;2.43;1.97;;;16.50;65.70;;;;;;5015076;28;20464;-74
2023/05/19 16:13:21;;;;;;;2.40;1.80;;;16.60;65.80;;;;;;5014545;28;20448;-74
2023/05/19 16:18:17;;;;;;;3.23;1.80;;;17.00;65.10;;;;;;5033095;28;20467;-74
2023/05/19 16:20:44;;;;;;;3.57;1.57;;;17.00;65.00;;;;;;5034138;28;20447;-74
2023/05/19 16:23:10;;;;;;;3.30;1.87;;;17.00;64.10;;;;;;5034315;28;20523;-74
2023/05/19 16:25:38;;;;;;;2.60;2.00;;;16.80;64.70;;;;;;5034109;28;20467;-73
2023/05/19 16:28:05;;;;;;;3.33;2.00;;;16.80;65.10;;;;;;5033684;28;20975;-73
2023/05/19 16:30:32;;;;;;;4.00;1.70;;;16.80;65.30;;;;;;5032910;28;20528;-73
2023/05/19 16:32:58;;;;;;;3.43;2.20;;;16.80;64.90;;;;;;5033823;28;20447;-73
2023/05/19 16:35:26;;;;;;;3.90;2.00;;;16.80;65.50;;;;;;5033817;28;20491;-73
2023/05/19 16:37:53;;;;;;;2.03;1.50;;;16.70;65.50;;;;;;5033919;28;20803;-75
2023/05/19 16:40:19;;;;;;;2.70;1.80;;;16.70;65.50;;;;;;5033864;28;20502;-75
2023/05/19 16:42:47;;;;;;;5.97;2.20;;;16.90;65.00;;;;;;5033534;28;20448;-75
2023/05/19 16:45:16;;;;;;;2.60;1.80;;;17.10;64.70;;;;;;5033909;28;20877;-75
2023/05/19 16:47:42;;;;;;;4.30;1.90;;;17.10;63.30;;;;;;5033774;28;20501;-75
2023/05/19 16:50:11;;;;;;;2.67;1.77;;;16.90;65.20;;;;;;5033757;28;20497;-75
2023/05/19 16:52:38;;;;;;;5.10;2.10;;;16.90;64.90;;;;;;5033689;28;20454;-75
2023/05/19 16:55:05;;;;;;;3.27;1.70;;;17.10;64.80;;;;;;5033533;28;20532;-75
2023/05/19 16:57:32;;;;;;;2.80;1.80;;;17.30;64.00;;;;;;5033643;28;20459;-75
2023/05/19 17:00:00;;;;;;;3.00;1.93;;;17.30;64.00;;;;;;5033229;28;20456;-75